Station: Ngayawili (Elcho Island)  

  Atmospheric Gas Attenuation - ITU Rec 676-11   ----------------- dB/100km -----------------
Date Time Temp RH % AH g/m3 Dew Point Wind Direction Speed kph Gust kph Barometer mB Rainfall Since 9am 24GHz 47GHz 76GHz 122GHz 134GHz 241GHz
02/09 08:20 24.4 79 17.58 20.5 11 15 1018.5 0 38.0 37.9 71.5 188.9 205.6 714.0
02/09 08:10 24.1 81 17.72 20.6 11 13 1018.5 0 38.3 38.3 72.4 191.4 208.6 724.2
02/09 08:00 23.6 82 17.44 20.3 15 17 1018.4 0 37.8 38.0 71.6 189.2 205.7 714.1
02/09 07:50 23 86 17.68 20.5 9 11 1018.3 0 38.3 38.7 73.3 193.6 211.0 732.5
02/09 07:40 22.4 88 17.48 20.3 13 17 1018.3 0 38.0 38.6 72.9 192.7 209.6 727.6
02/09 07:30 21.8 93 17.84 20.6 7 9 1018.2 0 38.8 39.6 75.2 198.8 216.9 753.0
02/09 07:20 21.2 96 17.79 20.5 9 11 1018.1 0 38.7 39.7 75.5 199.7 217.9 756.2
02/09 07:10 20.7 97 17.46 20.2 7 9 1017.9 0 38.1 39.3 74.4 196.7 214.1 742.9
02/09 07:00 20.5 97 17.26 20 7 7 1017.7 0 37.7 39.0 73.6 194.6 211.5 733.7
02/09 06:50 20.3 97 17.06 19.8 7 9 1017.6 0 37.3 38.7 72.9 192.6 208.9 724.7
02/09 06:40 20.3 97 17.06 19.8 7 9 1017.5 0 37.3 38.7 72.9 192.6 208.8 724.6
02/09 06:30 20.3 97 17.06 19.8 7 7 1017.4 0 37.3 38.7 72.9 192.5 208.8 724.6
02/09 06:20 20.2 97 16.96 19.7 7 7 1017.3 0 37.1 38.6 72.5 191.5 207.5 720.0
02/09 06:10 20.4 97 17.16 19.9 7 7 1017.1 0 37.5 38.9 73.2 193.5 210.1 728.9
02/09 06:00 20.5 96 17.08 19.8 7 7 1017 0 37.3 38.6 72.7 192.2 208.5 723.5
02/09 05:50 20.5 96 17.08 19.8 7 7 1016.9 0 37.3 38.6 72.7 192.2 208.5 723.5
02/09 05:40 20.5 96 17.08 19.8 6 7 1016.7 0 37.3 38.6 72.7 192.2 208.5 723.4
02/09 05:30 20.4 96 16.98 19.7 7 9 1016.6 0 37.1 38.5 72.3 191.1 207.2 718.8
02/09 05:20 20.8 96 17.38 20.1 7 7 1016.6 0 37.9 39.1 73.9 195.2 212.3 736.8
02/09 05:10 20.7 95 17.1 19.9 7 9 1016.4 0 37.3 38.6 72.6 191.9 208.2 722.4
02/09 05:00 20.9 95 17.3 20.1 9 9 1016.3 0 37.7 38.9 73.4 193.9 210.7 731.3
02/09 04:50 21.1 95 17.5 20.3 9 9 1016.2 0 38.1 39.1 74.1 195.9 213.3 740.3
02/09 04:40 21 96 17.58 20.3 9 9 1016.2 0 38.3 39.3 74.6 197.2 214.9 745.6
02/09 04:30 20.5 94 16.72 19.5 9 9 1016.1 0 36.5 37.9 71.0 187.5 202.8 703.5
02/09 04:20 20.7 96 17.28 20 9 9 1016 0 37.7 38.9 73.4 194.1 211.0 732.0
02/09 04:10 20.7 96 17.28 20 9 9 1016.1 0 37.7 38.9 73.4 194.1 211.0 732.1
02/09 04:00 20.4 96 16.98 19.7 9 9 1016 0 37.1 38.5 72.3 191.0 207.1 718.5
02/09 03:50 20.3 96 16.88 19.6 9 9 1016 0 36.9 38.3 71.9 190.0 205.8 714.0
02/09 03:40 20.4 96 16.98 19.7 7 7 1016 0 37.1 38.5 72.3 191.0 207.1 718.5
02/09 03:30 20.5 96 17.08 19.8 7 9 1016 0 37.3 38.6 72.7 192.1 208.4 723.0
02/09 03:20 20.5 96 17.08 19.8 7 7 1016 0 37.3 38.6 72.7 192.1 208.4 723.0
02/09 03:10 20.3 95 16.71 19.5 6 6 1016 0 36.5 38.0 71.1 187.9 203.1 704.8
02/09 03:00 20.5 94 16.72 19.5 7 7 1016 0 36.5 37.9 70.9 187.5 202.7 703.4
02/09 02:50 20.8 94 17.02 19.8 7 7 1016.1 0 37.1 38.4 72.1 190.6 206.6 716.9
02/09 02:40 20.9 93 16.94 19.7 6 7 1016.1 0 37.0 38.2 71.6 189.3 205.1 711.6
02/09 02:30 21.3 93 17.33 20.1 6 7 1016.1 0 37.8 38.7 73.1 193.2 210.1 729.0
02/09 02:20 21.3 88 16.4 19.2 6 6 1016.3 0 35.8 37.0 68.7 181.6 195.7 679.1
02/09 02:10 21.9 88 16.98 19.8 6 6 1016.3 0 36.9 37.8 70.9 187.3 203.0 704.5
02/09 02:00 22 89 17.27 20.1 4 6 1016.4 0 37.6 38.3 72.2 190.7 207.2 719.2
02/09 01:50 22.2 87 17.08 19.9 6 6 1016.5 0 37.1 37.9 71.1 187.9 203.7 707.2
02/09 01:40 22.5 85 16.98 19.9 6 6 1016.5 0 36.9 37.5 70.3 185.9 201.4 699.1
02/09 01:30 22.9 83 16.96 19.9 7 9 1016.6 0 36.8 37.3 69.9 184.7 200.0 694.4
02/09 01:20 23 82 16.85 19.8 7 9 1016.5 0 36.6 37.1 69.3 183.1 198.1 687.6
02/09 01:10 23 82 16.85 19.8 9 11 1016.6 0 36.6 37.1 69.3 183.1 198.1 687.7
02/09 01:00 23.2 81 16.84 19.8 7 9 1016.6 0 36.5 37.0 69.1 182.5 197.4 685.4
02/09 00:50 23.3 81 16.93 19.9 7 9 1016.6 0 36.7 37.1 69.4 183.4 198.5 689.2
02/09 00:40 23.4 80 16.82 19.8 9 11 1016.7 0 36.5 36.8 68.8 181.8 196.6 682.6
02/09 00:30 23.5 80 16.92 19.8 7 7 1016.7 0 36.7 37.0 69.2 182.8 197.9 686.9
02/09 00:20 23.5 80 16.92 19.8 7 9 1016.8 0 36.7 37.0 69.2 182.8 197.9 686.9
02/09 00:10 23.5 81 17.13 20 7 9 1016.9 0 37.1 37.4 70.1 185.4 201.0 698.0
02/09 00:00 23.5 81 17.13 20 7 7 1017.1 0 37.1 37.4 70.1 185.4 201.1 698.1
01/09 23:50 23.5 82 17.34 20.2 7 9 1017.2 0 37.6 37.8 71.1 188.0 204.3 709.1
01/09 23:40 23.6 81 17.23 20.1 7 7 1017.2 0 37.3 37.5 70.5 186.4 202.3 702.4
01/09 23:30 23.7 81 17.32 20.2 6 7 1017.2 0 37.5 37.7 70.8 187.3 203.4 706.2
01/09 23:20 23.9 80 17.31 20.2 9 11 1017.3 0 37.5 37.6 70.6 186.7 202.7 703.9
01/09 23:10 23.9 80 17.31 20.2 7 11 1017.4 0 37.5 37.6 70.6 186.7 202.8 703.9
01/09 23:00 24 79 17.19 20.1 7 9 1017.5 0 37.2 37.3 70.0 185.0 200.7 696.8
01/09 22:50 24.1 78 17.07 20 7 11 1017.4 0 36.9 37.0 69.3 183.3 198.6 689.6
01/09 22:40 24.2 78 17.16 20.1 9 11 1017.4 0 37.1 37.1 69.7 184.1 199.7 693.4
01/09 22:30 24.3 77 17.04 20 11 13 1017.3 0 36.8 36.9 69.0 182.4 197.6 686.2
01/09 22:20 24.4 77 17.14 20.1 13 15 1017.3 0 37.0 37.0 69.4 183.4 198.9 690.5
01/09 22:10 24.3 78 17.26 20.2 11 19 1017.4 0 37.3 37.3 70.0 185.1 200.9 697.7
01/09 22:00 24.4 78 17.36 20.3 11 11 1017.6 0 37.5 37.4 70.4 186.1 202.2 702.0
01/09 21:50 24.4 78 17.36 20.3 9 13 1017.5 0 37.5 37.4 70.4 186.1 202.2 702.0
01/09 21:40 24.5 79 17.68 20.6 9 11 1017.5 0 38.2 38.0 71.8 189.7 206.7 717.8
01/09 21:30 24.6 78 17.56 20.5 11 15 1017.4 0 37.9 37.7 71.1 188.0 204.6 710.5
01/09 21:20 24.7 77 17.43 20.4 11 13 1017.3 0 37.6 37.4 70.4 186.2 202.4 702.8
01/09 21:10 24.9 76 17.4 20.4 15 17 1017.3 0 37.5 37.3 70.1 185.3 201.4 699.4
01/09 21:00 25 75 17.26 20.3 11 13 1017.3 0 37.2 37.0 69.4 183.4 199.1 691.2
01/09 20:50 25 74 17.03 20 13 17 1017.2 0 36.8 36.6 68.3 180.6 195.7 679.4
01/09 20:40 25 73 16.8 19.8 11 15 1017.1 0 36.3 36.1 67.3 177.8 192.3 667.6
01/09 20:30 24.9 73 16.71 19.7 9 13 1017 0 36.1 36.0 67.0 177.0 191.2 663.8
01/09 20:20 24.9 73 16.71 19.7 11 15 1016.9 0 36.1 36.0 67.0 177.0 191.2 663.8
01/09 20:10 24.9 74 16.94 19.9 15 20 1016.8 0 36.6 36.4 68.0 179.7 194.5 675.5
01/09 20:00 24.9 74 16.94 19.9 11 15 1016.7 0 36.6 36.4 68.0 179.7 194.5 675.4
01/09 19:50 24.9 74 16.94 19.9 13 17 1016.5 0 36.6 36.4 68.0 179.7 194.5 675.3
01/09 19:40 24.9 74 16.94 19.9 11 13 1016.4 0 36.6 36.4 68.0 179.6 194.5 675.3
01/09 19:30 25 74 17.03 20 11 13 1016.2 0 36.8 36.5 68.3 180.5 195.5 678.9
01/09 19:20 25 75 17.26 20.3 11 15 1016.1 0 37.2 36.9 69.3 183.2 198.9 690.6
01/09 19:10 25.1 74 17.13 20.1 13 15 1015.9 0 37.0 36.6 68.6 181.4 196.7 683.0
01/09 19:00 25.3 73 17.09 20.1 17 20 1015.7 0 36.9 36.5 68.3 180.4 195.5 679.1
01/09 18:50 25.4 72 16.95 20 13 15 1015.5 0 36.6 36.2 67.5 178.5 193.2 671.0
01/09 18:40 25.4 73 17.19 20.2 11 15 1015.4 0 37.1 36.6 68.6 181.3 196.7 683.1
01/09 18:30 25.5 74 17.52 20.5 11 15 1015.3 0 37.8 37.1 70.0 185.0 201.3 699.1
01/09 18:20 25.8 71 17.09 20.1 13 17 1015.1 0 36.8 36.2 67.8 179.1 194.2 674.4
01/09 18:10 25.9 67 16.22 19.3 13 20 1015 0 35.0 34.7 63.9 168.7 181.4 629.9
01/09 18:00 26.2 65 16 19.1 22 30 1014.9 0 34.5 34.1 62.7 165.5 177.6 616.6
01/09 17:50 26.4 63 15.68 18.8 15 19 1014.9 0 33.8 33.5 61.1 161.5 172.7 599.5
01/09 17:40 27.1 61 15.79 18.9 17 22 1014.9 0 34.0 33.4 61.0 161.3 172.6 599.4
01/09 17:30 27.3 59 15.44 18.6 20 32 1014.8 0 33.2 32.8 59.4 157.0 167.4 581.1
01/09 17:20 27.6 57 15.16 18.3 19 26 1014.7 0 32.6 32.2 58.0 153.3 162.9 565.7
01/09 17:10 28 55 14.96 18.1 19 24 1014.6 0 32.2 31.7 56.9 150.3 159.4 553.5
01/09 17:00 28.5 52 14.54 17.7 20 24 1014.5 0 31.2 30.8 54.9 144.9 152.9 530.7
01/09 16:50 28.6 53 14.9 18.1 20 24 1014.3 0 32.0 31.4 56.2 148.5 157.4 546.4
01/09 16:40 29 50 14.36 17.8 22 30 1014.1 0 30.8 30.4 53.8 142.0 149.5 519.0
01/09 16:30 29.3 50 14.6 17.8 20 22 1014.1 0 31.3 30.6 54.5 144.0 152.0 527.9
01/09 16:20 30 45 13.65 16.8 15 17 1014 0 29.3 28.9 50.4 133.0 138.7 481.3
01/09 16:10 29.4 46 13.51 16.6 15 17 1014.1 0 29.0 28.9 50.2 132.5 138.0 478.8
01/09 16:00 30 48 14.56 17.8 17 20 1014.1 0 31.2 30.3 53.9 142.3 150.2 521.4
01/09 15:50 30.3 46 14.18 17.7 13 15 1014.1 0 30.4 29.6 52.2 137.9 144.8 502.7

Last Refresh: 02-Sep-2026 08:37:34

Bureau of Meteorology